Time;durP1;ratioP1;P1;durP2;ratioP2;P2;SDS_P1;SDS_P2;PMS_P1;PMS_P2;Temp;Humidity;BMP_temperature;BMP_pressure;BME280_temperature;BME280_humidity;BME280_pressure;Samples;Min_cycle;Max_cycle;Signal;HPM_P1;HPM_P2
2021/01/07 00:01:32;;;;;;;12.00;4.73;;;;;;;;;;10326437;28;20205;-79
2021/01/07 00:06:34;;;;;;;12.13;5.33;;;;;;;;;;10323674;28;20575;-79
2021/01/07 00:11:40;;;;;;;12.37;4.73;;;;;;;;;;10326313;28;20310;-75
2021/01/07 00:16:43;;;;;;;12.80;5.00;;;;;;;;;;10328147;28;20288;-75
2021/01/07 00:21:45;;;;;;;12.27;5.27;;;;;;;;;;10319944;28;20206;-75
2021/01/07 00:26:46;;;;;;;11.63;4.80;;;;;;;;;;10326291;28;20216;-76
2021/01/07 00:31:49;;;;;;;11.03;5.10;;;;;;;;;;10322848;28;20234;-75
2021/01/07 00:36:55;;;;;;;8.43;4.00;;;;;;;;;;10324522;28;20239;-76
2021/01/07 00:41:57;;;;;;;9.43;4.13;;;;;;;;;;10316748;28;20217;-75
2021/01/07 00:47:00;;;;;;;8.17;4.20;;;;;;;;;;10321606;28;20217;-76
2021/01/07 00:52:02;;;;;;;8.10;3.77;;;;;;;;;;10341390;28;20627;-75
2021/01/07 00:57:04;;;;;;;7.93;3.93;;;;;;;;;;10358423;28;20210;-75
2021/01/07 01:02:07;;;;;;;9.07;3.70;;;;;;;;;;10355769;28;20724;-75
2021/01/07 01:07:08;;;;;;;8.97;3.40;;;;;;;;;;10361221;28;20250;-79
2021/01/07 01:12:10;;;;;;;6.80;3.00;;;;;;;;;;10358820;28;20242;-79
2021/01/07 01:17:13;;;;;;;8.70;3.40;;;;;;;;;;10360004;28;20209;-79
2021/01/07 01:22:15;;;;;;;4.90;3.50;;;;;;;;;;10359122;28;20248;-79
2021/01/07 01:27:17;;;;;;;5.93;3.50;;;;;;;;;;10365616;28;20205;-79
2021/01/07 01:32:19;;;;;;;7.30;3.67;;;;;;;;;;10361614;28;20243;-80
2021/01/07 01:37:21;;;;;;;10.93;3.87;;;;;;;;;;10359066;28;20664;-80
2021/01/07 01:42:23;;;;;;;7.40;3.70;;;;;;;;;;10366438;28;20208;-78
2021/01/07 01:47:26;;;;;;;6.17;3.87;;;;;;;;;;10362016;28;20230;-79
2021/01/07 01:52:29;;;;;;;6.77;3.60;;;;;;;;;;10356422;28;21011;-80
2021/01/07 01:57:32;;;;;;;9.23;3.90;;;;;;;;;;10361537;28;20212;-80
2021/01/07 02:02:34;;;;;;;9.10;3.50;;;;;;;;;;10355191;28;20213;-76
2021/01/07 02:07:37;;;;;;;6.33;3.63;;;;;;;;;;10356483;28;20790;-77
2021/01/07 02:12:43;;;;;;;5.43;3.40;;;;;;;;;;10362317;28;20900;-76
2021/01/07 02:17:46;;;;;;;6.60;3.70;;;;;;;;;;10358929;28;20568;-77
2021/01/07 02:22:51;;;;;;;6.63;3.57;;;;;;;;;;10358586;28;20213;-76
2021/01/07 02:28:02;;;;;;;8.30;3.93;;;;;;;;;;10359722;28;20824;-76
2021/01/07 02:33:04;;;;;;;6.77;3.53;;;;;;;;;;10359916;28;20243;-77
2021/01/07 02:38:06;;;;;;;5.43;3.60;;;;;;;;;;10360544;28;20218;-80
2021/01/07 02:43:09;;;;;;;7.13;3.37;;;;;;;;;;10360936;28;20295;-81
2021/01/07 02:48:11;;;;;;;6.10;2.83;;;;;;;;;;10359190;28;20271;-80
2021/01/07 02:53:14;;;;;;;5.37;2.83;;;;;;;;;;10320446;28;21046;-76
2021/01/07 02:58:16;;;;;;;8.13;2.97;;;;;;;;;;10327258;28;20217;-77
2021/01/07 03:03:17;;;;;;;4.20;2.30;;;;;;;;;;10324558;28;20591;-77
2021/01/07 03:08:20;;;;;;;5.87;2.67;;;;;;;;;;10325136;28;20216;-77
2021/01/07 03:13:22;;;;;;;4.03;2.90;;;;;;;;;;10329709;28;20241;-81
2021/01/07 03:18:23;;;;;;;6.27;2.90;;;;;;;;;;10320870;28;20221;-80
2021/01/07 03:23:26;;;;;;;6.37;3.20;;;;;;;;;;10322723;28;20212;-81
2021/01/07 03:28:29;;;;;;;8.17;3.23;;;;;;;;;;10330245;28;20548;-81
2021/01/07 03:33:32;;;;;;;6.67;2.97;;;;;;;;;;10324131;28;20331;-76
2021/01/07 03:38:35;;;;;;;5.13;2.93;;;;;;;;;;10324372;28;20216;-76
2021/01/07 03:43:36;;;;;;;5.30;2.93;;;;;;;;;;10324706;28;20221;-76
2021/01/07 03:48:38;;;;;;;7.87;3.30;;;;;;;;;;10327496;28;20232;-81
2021/01/07 03:53:41;;;;;;;6.97;3.30;;;;;;;;;;10327352;28;20240;-81
2021/01/07 03:58:42;;;;;;;6.83;3.30;;;;;;;;;;10322757;28;20220;-81
2021/01/07 04:03:44;;;;;;;5.33;2.87;;;;;;;;;;10320594;28;20745;-80
2021/01/07 04:08:47;;;;;;;5.47;3.03;;;;;;;;;;10322720;28;20210;-81
2021/01/07 04:13:49;;;;;;;7.23;3.63;;;;;;;;;;10322233;28;20292;-82
2021/01/07 04:18:51;;;;;;;5.53;2.87;;;;;;;;;;10322988;28;20215;-82
2021/01/07 04:23:53;;;;;;;6.20;3.13;;;;;;;;;;10323008;28;20217;-81
2021/01/07 04:28:55;;;;;;;5.23;2.80;;;;;;;;;;10323861;28;20586;-76
2021/01/07 04:33:57;;;;;;;5.27;3.23;;;;;;;;;;10320216;28;20704;-74
2021/01/07 04:39:00;;;;;;;5.73;2.80;;;;;;;;;;10321176;28;20213;-77
2021/01/07 04:44:02;;;;;;;3.57;2.73;;;;;;;;;;10319999;28;20216;-77
2021/01/07 04:49:04;;;;;;;4.70;2.53;;;;;;;;;;10325958;28;20236;-76
2021/01/07 04:54:07;;;;;;;6.53;2.73;;;;;;;;;;10358385;28;20638;-76
2021/01/07 04:59:10;;;;;;;7.43;3.30;;;;;;;;;;10361171;28;20209;-77
2021/01/07 05:04:14;;;;;;;4.83;3.33;;;;;;;;;;10358813;28;20838;-81
2021/01/07 05:09:17;;;;;;;6.57;3.67;;;;;;;;;;10356139;28;20209;-81
2021/01/07 05:14:19;;;;;;;8.47;3.40;;;;;;;;;;10362596;28;20236;-81
2021/01/07 05:19:20;;;;;;;8.37;3.63;;;;;;;;;;10358639;28;20266;-81
2021/01/07 05:24:23;;;;;;;9.20;4.00;;;;;;;;;;10362017;28;20223;-77
2021/01/07 05:29:29;;;;;;;5.30;3.47;;;;;;;;;;10356387;28;20229;-76
2021/01/07 05:34:30;;;;;;;5.83;3.10;;;;;;;;;;10357896;28;21039;-76
2021/01/07 05:39:34;;;;;;;5.97;2.87;;;;;;;;;;10361761;28;20665;-81
2021/01/07 05:44:35;;;;;;;4.50;2.70;;;;;;;;;;10363747;28;20228;-80
2021/01/07 05:49:38;;;;;;;4.27;2.73;;;;;;;;;;10349121;28;20256;-80
2021/01/07 05:54:42;;;;;;;5.77;2.60;;;;;;;;;;10315846;28;20727;-81
2021/01/07 05:59:47;;;;;;;5.13;3.10;;;;;;;;;;10315773;28;20676;-78
2021/01/07 06:04:51;;;;;;;7.87;3.27;;;;;;;;;;10315697;28;20255;-80
2021/01/07 06:09:54;;;;;;;7.43;3.93;;;;;;;;;;10321974;28;20221;-80
2021/01/07 06:14:58;;;;;;;8.40;3.77;;;;;;;;;;10322047;28;20228;-80
2021/01/07 06:20:00;;;;;;;4.80;3.00;;;;;;;;;;10317420;28;20217;-80
2021/01/07 06:25:09;;;;;;;9.20;3.37;;;;;;;;;;10322940;28;20414;-80
2021/01/07 06:30:32;;;;;;;4.57;2.83;;;;;;;;;;10326762;28;20218;-80
2021/01/07 06:35:34;;;;;;;5.07;2.90;;;;;;;;;;10323103;28;20720;-80
2021/01/07 06:40:41;;;;;;;9.07;2.80;;;;;;;;;;10329910;28;20205;-79
2021/01/07 06:45:49;;;;;;;12.90;3.10;;;;;;;;;;10325034;28;20711;-80
2021/01/07 06:50:52;;;;;;;6.03;2.80;;;;;;;;;;10328030;28;20244;-80
2021/01/07 06:56:13;;;;;;;5.83;2.73;;;;;;;;;;10323554;28;20241;-75
2021/01/07 07:01:16;;;;;;;5.00;2.83;;;;;;;;;;10326596;28;20216;-76
2021/01/07 07:06:19;;;;;;;6.57;3.07;;;;;;;;;;10324337;28;20681;-76
2021/01/07 07:11:31;;;;;;;4.37;2.73;;;;;;;;;;10324058;28;20205;-77
2021/01/07 07:16:36;;;;;;;6.83;3.20;;;;;;;;;;10323410;28;20237;-76
2021/01/07 07:21:52;;;;;;;7.87;3.50;;;;;;;;;;10322620;28;20287;-75
2021/01/07 07:26:57;;;;;;;9.27;3.20;;;;;;;;;;10322338;28;20691;-75
2021/01/07 07:32:00;;;;;;;6.53;3.40;;;;;;;;;;10320275;28;20211;-79
2021/01/07 07:37:17;;;;;;;8.33;3.80;;;;;;;;;;10318723;28;20235;-79
2021/01/07 07:42:20;;;;;;;8.40;4.00;;;;;;;;;;10328250;28;20204;-79
2021/01/07 07:47:23;;;;;;;14.83;3.90;;;;;;;;;;10333083;28;20217;-78
2021/01/07 07:52:25;;;;;;;7.27;4.03;;;;;;;;;;10334115;28;20288;-78
2021/01/07 07:57:27;;;;;;;10.23;4.57;;;;;;;;;;10327613;28;20665;-76
2021/01/07 08:02:29;;;;;;;8.87;4.10;;;;;;;;;;10319573;28;20213;-73
2021/01/07 08:07:32;;;;;;;8.20;4.20;;;;;;;;;;10308630;28;20669;-74
2021/01/07 08:12:34;;;;;;;13.52;6.38;;;;;;;;;;10326250;28;20468;-75
2021/01/07 08:17:37;;;;;;;9.37;5.13;;;;;;;;;;10333920;28;20209;-75
2021/01/07 08:22:39;;;;;;;10.17;4.67;;;;;;;;;;10311394;28;20210;-77
2021/01/07 08:27:45;;;;;;;10.27;3.97;;;;;;;;;;10329825;28;20980;-76
2021/01/07 08:32:48;;;;;;;8.50;4.40;;;;;;;;;;10327452;28;20243;-75
2021/01/07 08:37:50;;;;;;;8.43;3.93;;;;;;;;;;10325029;28;20213;-66
2021/01/07 08:42:52;;;;;;;9.53;3.77;;;;;;;;;;10320519;28;20682;-70
2021/01/07 08:48:04;;;;;;;12.67;3.40;;;;;;;;;;10333562;28;20220;-76
2021/01/07 08:53:08;;;;;;;9.87;3.43;;;;;;;;;;10319001;28;20249;-76
2021/01/07 08:58:10;;;;;;;6.17;2.70;;;;;;;;;;10325651;28;20782;-76
2021/01/07 09:03:12;;;;;;;7.37;3.27;;;;;;;;;;10318284;28;20590;-76
2021/01/07 09:08:14;;;;;;;6.30;3.27;;;;;;;;;;10318884;28;20216;-75
2021/01/07 09:13:17;;;;;;;9.13;3.00;;;;;;;;;;10307435;28;20716;-76
2021/01/07 09:18:20;;;;;;;5.60;2.80;;;;;;;;;;10309096;28;20213;-76
2021/01/07 09:23:21;;;;;;;4.73;2.73;;;;;;;;;;10307121;28;20216;-76
2021/01/07 09:28:23;;;;;;;4.20;2.50;;;;;;;;;;10321987;28;20212;-75
2021/01/07 09:33:26;;;;;;;3.57;2.30;;;;;;;;;;10319043;28;20243;-77
2021/01/07 09:38:28;;;;;;;2.87;2.47;;;;;;;;;;10315392;28;20220;-76
2021/01/07 09:43:32;;;;;;;6.03;2.23;;;;;;;;;;10315179;28;20213;-76
2021/01/07 09:48:35;;;;;;;3.77;2.53;;;;;;;;;;10316403;28;20239;-76
2021/01/07 09:53:36;;;;;;;5.03;2.60;;;;;;;;;;10315754;28;20241;-76
2021/01/07 09:58:38;;;;;;;4.43;2.40;;;;;;;;;;10310850;28;20213;-74
2021/01/07 10:03:41;;;;;;;7.97;2.80;;;;;;;;;;10311330;28;20209;-73
2021/01/07 10:08:43;;;;;;;4.83;2.20;;;;;;;;;;10308257;28;20216;-74
2021/01/07 10:13:45;;;;;;;6.13;2.07;;;;;;;;;;10305534;28;20243;-74
2021/01/07 10:18:49;;;;;;;7.50;2.20;;;;;;;;;;10309103;28;20217;-76
2021/01/07 10:23:51;;;;;;;3.53;2.40;;;;;;;;;;10313501;28;20206;-69
2021/01/07 10:28:53;;;;;;;5.27;3.60;;;;;;;;;;10324199;28;20205;-78
2021/01/07 10:33:56;;;;;;;6.10;2.10;;;;;;;;;;10320337;28;20822;-75
2021/01/07 10:38:58;;;;;;;6.33;2.30;;;;;;;;;;10317630;28;20216;-78
2021/01/07 10:44:00;;;;;;;7.47;2.50;;;;;;;;;;10330674;28;20221;-78
2021/01/07 10:49:03;;;;;;;8.23;3.10;;;;;;;;;;10310542;28;20232;-77
2021/01/07 10:54:15;;;;;;;4.93;3.17;;;;;;;;;;10319773;28;20247;-78
2021/01/07 10:59:27;;;;;;;9.77;3.40;;;;;;;;;;10318014;28;20693;-75
2021/01/07 11:04:46;;;;;;;5.87;3.50;;;;;;;;;;10316091;28;20216;-74
2021/01/07 11:09:51;;;;;;;7.83;3.53;;;;;;;;;;10340275;23;20249;-73
2021/01/07 11:14:58;;;;;;;11.33;3.73;;;;;;;;;;10308633;28;20238;-74
2021/01/07 11:20:03;;;;;;;12.63;3.27;;;;;;;;;;10307224;28;20220;-75
2021/01/07 11:25:07;;;;;;;11.70;3.40;;;;;;;;;;10313749;28;20233;-78
2021/01/07 11:30:09;;;;;;;7.87;3.47;;;;;;;;;;10304487;28;20217;-78
2021/01/07 11:35:11;;;;;;;8.67;3.00;;;;;;;;;;10311216;28;20810;-70
2021/01/07 11:40:18;;;;;;;10.13;3.30;;;;;;;;;;10296949;28;20217;-74
2021/01/07 11:45:21;;;;;;;10.87;3.20;;;;;;;;;;10284596;28;20686;-75
2021/01/07 11:50:24;;;;;;;9.83;3.20;;;;;;;;;;10302990;28;20233;-75
2021/01/07 11:55:26;;;;;;;6.97;2.90;;;;;;;;;;10319298;28;20240;-75
2021/01/07 12:00:29;;;;;;;8.10;3.00;;;;;;;;;;10335882;28;20217;-75
2021/01/07 12:05:30;;;;;;;7.97;3.20;;;;;;;;;;10315441;28;21609;-75
2021/01/07 12:10:37;;;;;;;14.63;3.07;;;;;;;;;;10349491;28;20352;-75
2021/01/07 12:15:41;;;;;;;18.87;2.60;;;;;;;;;;10364831;28;20239;-75
2021/01/07 12:20:46;;;;;;;8.37;3.00;;;;;;;;;;10373401;28;20651;-74
2021/01/07 12:25:49;;;;;;;11.27;2.90;;;;;;;;;;10369919;28;20218;-74
2021/01/07 12:42:44;;;;;;;11.30;2.50;;;;;;;;;;10461945;27;20661;-69
2021/01/07 12:47:47;;;;;;;10.27;2.83;;;;;;;;;;10334980;28;20267;-67
2021/01/07 12:52:49;;;;;;;8.57;2.47;;;;;;;;;;10334365;28;20215;-67
2021/01/07 13:11:16;;;;;;;6.77;1.93;;;;;;;;;;10572057;27;20630;-67
2021/01/07 13:16:18;;;;;;;10.53;1.97;;;;;;;;;;10578132;28;20221;-66
2021/01/07 13:21:20;;;;;;;9.17;2.40;;;;;;;;;;10576668;27;20219;-66
2021/01/07 13:26:23;;;;;;;6.63;2.10;;;;;;;;;;10584698;28;20223;-67
2021/01/07 13:31:25;;;;;;;9.40;2.90;;;;;;;;;;10568101;28;20689;-68
2021/01/07 13:36:28;;;;;;;10.53;2.80;;;;;;;;;;10569296;28;20233;-67
2021/01/07 13:41:32;;;;;;;12.57;3.53;;;;;;;;;;10565589;27;20790;-67
2021/01/07 13:46:37;;;;;;;8.07;2.47;;;;;;;;;;10549961;27;20679;-66
2021/01/07 13:51:43;;;;;;;8.40;3.03;;;;;;;;;;10564715;27;20197;-66
2021/01/07 13:56:47;;;;;;;8.30;2.63;;;;;;;;;;10554973;27;20233;-66
2021/01/07 14:01:48;;;;;;;12.70;2.90;;;;;;;;;;10557180;28;20697;-66
2021/01/07 14:06:51;;;;;;;8.30;2.17;;;;;;;;;;10547232;27;20625;-66
2021/01/07 14:11:54;;;;;;;5.17;2.33;;;;;;;;;;10536884;28;20213;-68
2021/01/07 14:16:55;;;;;;;9.23;2.93;;;;;;;;;;10528740;28;20632;-68
2021/01/07 14:21:57;;;;;;;12.57;3.20;;;;;;;;;;10506489;27;20952;-68
2021/01/07 14:27:06;;;;;;;12.30;3.40;;;;;;;;;;10510698;28;20316;-67
2021/01/07 14:32:09;;;;;;;9.57;2.80;;;;;;;;;;10516310;28;20209;-67
2021/01/07 14:37:11;;;;;;;12.07;2.93;;;;;;;;;;10520633;28;20234;-68
2021/01/07 14:42:14;;;;;;;11.67;3.00;;;;;;;;;;10530797;28;20225;-67
2021/01/07 14:47:17;;;;;;;7.50;2.33;;;;;;;;;;10503182;28;20209;-66
2021/01/07 14:52:21;;;;;;;10.37;2.47;;;;;;;;;;10527453;28;20210;-73
2021/01/07 14:57:38;;;;;;;10.43;2.57;;;;;;;;;;10519511;28;20233;-66
2021/01/07 15:02:46;;;;;;;17.97;2.30;;;;;;;;;;10522121;28;20208;-65
2021/01/07 15:07:55;;;;;;;7.20;2.27;;;;;;;;;;10533046;28;20784;-64
2021/01/07 15:13:09;;;;;;;8.20;1.93;;;;;;;;;;10529389;28;20784;-64
2021/01/07 15:18:17;;;;;;;12.43;1.90;;;;;;;;;;10536401;28;20621;-65
2021/01/07 15:23:24;;;;;;;9.43;1.80;;;;;;;;;;10525992;28;20208;-68
2021/01/07 15:28:31;;;;;;;5.73;1.77;;;;;;;;;;10538820;28;20295;-67
2021/01/07 15:33:34;;;;;;;6.93;2.00;;;;;;;;;;10536235;28;20593;-67
2021/01/07 15:38:55;;;;;;;9.50;2.03;;;;;;;;;;10540781;28;20728;-67
2021/01/07 15:44:20;;;;;;;9.07;2.03;;;;;;;;;;10540328;28;20212;-67
2021/01/07 15:49:30;;;;;;;6.73;2.00;;;;;;;;;;10543929;28;20583;-67
2021/01/07 15:54:43;;;;;;;10.87;2.00;;;;;;;;;;10535135;28;20237;-67
2021/01/07 15:59:48;;;;;;;7.57;2.10;;;;;;;;;;10539020;28;20241;-67
2021/01/07 16:04:56;;;;;;;14.37;2.27;;;;;;;;;;10537631;28;20211;-67
2021/01/07 16:09:58;;;;;;;7.63;2.23;;;;;;;;;;10524670;28;20249;-66
2021/01/07 16:15:01;;;;;;;5.60;2.20;;;;;;;;;;10523316;28;21327;-68
2021/01/07 16:20:04;;;;;;;14.50;2.83;;;;;;;;;;10535619;28;20328;-77
2021/01/07 16:25:07;;;;;;;6.40;2.47;;;;;;;;;;10536283;28;20213;-69
2021/01/07 16:30:10;;;;;;;8.87;3.00;;;;;;;;;;10535846;28;20206;-67
2021/01/07 16:35:13;;;;;;;12.40;3.00;;;;;;;;;;10533969;28;20221;-63
2021/01/07 16:40:15;;;;;;;8.63;2.20;;;;;;;;;;10547073;28;20225;-64
2021/01/07 16:45:17;;;;;;;10.20;2.60;;;;;;;;;;10522814;28;20737;-63
2021/01/07 16:50:19;;;;;;;8.07;2.30;;;;;;;;;;10541349;28;20201;-63
2021/01/07 16:55:21;;;;;;;11.53;2.57;;;;;;;;;;10537737;28;20552;-79
2021/01/07 17:00:24;;;;;;;9.73;2.33;;;;;;;;;;10533627;28;20247;-81
2021/01/07 17:05:26;;;;;;;6.63;1.90;;;;;;;;;;10539727;28;20210;-75
2021/01/07 17:10:27;;;;;;;7.83;1.97;;;;;;;;;;10536488;28;20244;-80
2021/01/07 17:15:30;;;;;;;8.33;2.60;;;;;;;;;;10534589;28;20212;-77
2021/01/07 17:20:32;;;;;;;9.97;2.40;;;;;;;;;;10540287;28;20221;-79
2021/01/07 17:25:33;;;;;;;4.27;2.10;;;;;;;;;;10536703;28;20209;-79
2021/01/07 17:30:36;;;;;;;6.53;2.03;;;;;;;;;;10519355;28;20210;-76
2021/01/07 17:35:38;;;;;;;8.13;2.30;;;;;;;;;;10541013;28;20592;-75
2021/01/07 17:40:41;;;;;;;6.90;2.40;;;;;;;;;;10537798;28;20266;-77
2021/01/07 17:45:43;;;;;;;7.83;2.33;;;;;;;;;;10524798;28;20201;-76
2021/01/07 17:50:46;;;;;;;7.10;2.50;;;;;;;;;;10545127;28;20327;-77
2021/01/07 17:55:47;;;;;;;9.87;3.03;;;;;;;;;;10545734;28;20776;-76
2021/01/07 18:00:50;;;;;;;12.37;2.87;;;;;;;;;;10541582;28;20233;-77
2021/01/07 18:05:52;;;;;;;11.17;2.93;;;;;;;;;;10545691;28;20210;-77
2021/01/07 18:10:54;;;;;;;10.73;3.20;;;;;;;;;;10541949;28;20229;-77
2021/01/07 18:15:57;;;;;;;14.43;3.70;;;;;;;;;;10532459;27;20206;-78
2021/01/07 18:20:59;;;;;;;9.47;3.13;;;;;;;;;;10537927;28;20229;-76
2021/01/07 18:26:02;;;;;;;10.73;3.00;;;;;;;;;;10544150;28;20730;-77
2021/01/07 18:31:07;;;;;;;6.27;2.80;;;;;;;;;;10537949;28;20205;-77
2021/01/07 18:36:15;;;;;;;11.80;3.13;;;;;;;;;;10528043;28;20209;-77
2021/01/07 18:41:17;;;;;;;12.53;3.13;;;;;;;;;;10536345;28;20642;-77
2021/01/07 18:46:24;;;;;;;9.57;2.90;;;;;;;;;;10543443;28;21068;-78
2021/01/07 18:51:26;;;;;;;7.87;2.47;;;;;;;;;;10536035;28;20678;-77
2021/01/07 18:56:28;;;;;;;6.53;2.30;;;;;;;;;;10541004;28;20214;-77
2021/01/07 19:01:31;;;;;;;6.70;2.60;;;;;;;;;;10538412;28;20621;-77
2021/01/07 19:06:33;;;;;;;12.60;3.20;;;;;;;;;;10523826;28;21464;-78
2021/01/07 19:11:35;;;;;;;9.10;2.97;;;;;;;;;;10540589;28;20221;-75
2021/01/07 19:16:37;;;;;;;8.07;2.40;;;;;;;;;;10542447;28;20670;-78
2021/01/07 19:21:40;;;;;;;4.97;2.77;;;;;;;;;;10541467;28;20693;-76
2021/01/07 19:26:42;;;;;;;8.77;2.97;;;;;;;;;;10537170;28;20757;-77
2021/01/07 19:31:45;;;;;;;9.13;3.20;;;;;;;;;;10540118;28;20214;-79
2021/01/07 19:36:47;;;;;;;9.53;2.87;;;;;;;;;;10536631;28;20209;-78
2021/01/07 19:41:51;;;;;;;5.60;2.83;;;;;;;;;;10543369;28;20662;-78
2021/01/07 19:46:54;;;;;;;11.00;2.80;;;;;;;;;;10524805;28;20202;-77
2021/01/07 19:51:56;;;;;;;11.97;3.50;;;;;;;;;;10531744;28;20198;-77
2021/01/07 19:57:01;;;;;;;10.23;3.43;;;;;;;;;;10526171;28;20883;-77
2021/01/07 20:02:04;;;;;;;9.00;2.47;;;;;;;;;;10522044;28;20233;-77
2021/01/07 20:07:06;;;;;;;7.17;2.47;;;;;;;;;;10523255;28;20253;-77
2021/01/07 20:12:09;;;;;;;11.60;2.20;;;;;;;;;;10533569;28;20581;-77
2021/01/07 20:17:12;;;;;;;2.83;1.53;;;;;;;;;;10525320;28;20248;-78
2021/01/07 20:22:14;;;;;;;1.63;1.33;;;;;;;;;;10536959;28;20213;-79
2021/01/07 20:27:18;;;;;;;3.30;1.73;;;;;;;;;;10537722;28;20211;-77
2021/01/07 20:32:20;;;;;;;3.10;1.30;;;;;;;;;;10537118;28;20705;-78
2021/01/07 20:37:23;;;;;;;2.83;1.30;;;;;;;;;;10536916;28;20706;-78
2021/01/07 20:42:27;;;;;;;2.67;1.53;;;;;;;;;;10521397;28;20244;-77
2021/01/07 20:47:30;;;;;;;2.37;1.70;;;;;;;;;;10523524;28;20202;-78
2021/01/07 20:52:32;;;;;;;2.87;1.90;;;;;;;;;;10539290;28;20913;-76
2021/01/07 20:57:33;;;;;;;2.53;1.93;;;;;;;;;;10533975;28;20229;-78
2021/01/07 21:02:41;;;;;;;4.37;2.57;;;;;;;;;;10540122;28;20229;-75
2021/01/07 21:07:44;;;;;;;3.20;2.40;;;;;;;;;;10539154;28;20787;-75
2021/01/07 21:12:47;;;;;;;2.77;2.07;;;;;;;;;;10536245;28;20752;-76
2021/01/07 21:17:49;;;;;;;6.90;2.50;;;;;;;;;;10540973;28;20233;-76
2021/01/07 21:22:51;;;;;;;4.67;2.70;;;;;;;;;;10549739;28;20210;-76
2021/01/07 21:27:53;;;;;;;5.07;2.53;;;;;;;;;;10555418;28;20250;-79
2021/01/07 21:32:56;;;;;;;4.37;2.40;;;;;;;;;;10544172;28;20210;-78
2021/01/07 21:38:00;;;;;;;4.87;2.30;;;;;;;;;;10548806;28;20233;-76
2021/01/07 21:43:05;;;;;;;3.43;2.30;;;;;;;;;;10541159;28;20205;-77
2021/01/07 21:48:08;;;;;;;4.67;2.30;;;;;;;;;;10543317;28;20225;-76
2021/01/07 21:53:10;;;;;;;3.63;2.50;;;;;;;;;;10545967;28;20209;-77
2021/01/07 21:58:12;;;;;;;4.37;2.10;;;;;;;;;;10539038;28;20241;-78
2021/01/07 22:03:15;;;;;;;6.00;2.63;;;;;;;;;;10530799;28;20212;-77
2021/01/07 22:08:16;;;;;;;3.13;2.50;;;;;;;;;;10541431;28;20754;-78
2021/01/07 22:13:18;;;;;;;4.50;3.20;;;;;;;;;;10538314;28;20202;-79
2021/01/07 22:18:21;;;;;;;5.37;2.80;;;;;;;;;;10540986;28;20255;-77
2021/01/07 22:23:23;;;;;;;6.57;2.67;;;;;;;;;;10543774;28;20210;-78
2021/01/07 22:28:25;;;;;;;3.43;2.33;;;;;;;;;;10542323;28;20201;-76
2021/01/07 22:33:28;;;;;;;6.30;2.50;;;;;;;;;;10541861;28;20205;-77
2021/01/07 22:38:30;;;;;;;4.33;2.57;;;;;;;;;;10515569;28;20233;-78
2021/01/07 22:43:32;;;;;;;5.77;2.73;;;;;;;;;;10530997;28;20209;-78
2021/01/07 22:48:35;;;;;;;3.80;2.40;;;;;;;;;;10533553;28;20221;-77
2021/01/07 22:53:37;;;;;;;7.47;3.67;;;;;;;;;;10530379;28;20249;-78
2021/01/07 22:58:39;;;;;;;7.33;2.60;;;;;;;;;;10531219;28;20232;-77
2021/01/07 23:03:42;;;;;;;4.20;2.80;;;;;;;;;;10534633;28;20206;-78
2021/01/07 23:08:44;;;;;;;6.37;2.33;;;;;;;;;;10530456;28;20236;-80
2021/01/07 23:13:45;;;;;;;4.80;2.40;;;;;;;;;;10537247;28;20209;-78
2021/01/07 23:18:48;;;;;;;2.87;1.83;;;;;;;;;;10538338;28;20232;-79
2021/01/07 23:23:50;;;;;;;4.00;1.90;;;;;;;;;;10541208;27;20213;-80
2021/01/07 23:28:51;;;;;;;10.73;4.67;;;;;;;;;;10531427;28;20202;-80
2021/01/07 23:33:54;;;;;;;3.97;2.00;;;;;;;;;;10537675;28;20209;-79
2021/01/07 23:38:56;;;;;;;5.23;2.53;;;;;;;;;;10534167;28;20229;-83
2021/01/07 23:43:58;;;;;;;4.77;2.30;;;;;;;;;;10533535;28;20393;-78
2021/01/07 23:49:01;;;;;;;4.20;2.20;;;;;;;;;;10533489;28;20612;-79
2021/01/07 23:54:02;;;;;;;4.10;2.53;;;;;;;;;;10539752;28;20585;-80
2021/01/07 23:59:04;;;;;;;3.93;2.70;;;;;;;;;;10529859;28;20242;-78
